Time;durP1;ratioP1;P1;durP2;ratioP2;P2;SDS_P1;SDS_P2;PMS_P1;PMS_P2;Temp;Humidity;BMP_temperature;BMP_pressure;BME280_temperature;BME280_humidity;BME280_pressure;Samples;Min_cycle;Max_cycle;Signal;HPM_P1;HPM_P2
2023/07/10 00:01:05;;;;;;;9.32;5.60;;;;;;;21.83;93.58;101001.34;5021661;28;20216;-75
2023/07/10 00:03:33;;;;;;;7.03;5.03;;;;;;;21.81;93.51;101003.38;5025875;28;20237;-75
2023/07/10 00:06:00;;;;;;;9.18;5.13;;;;;;;21.80;93.74;101005.22;5027064;28;20213;-75
2023/07/10 00:08:28;;;;;;;7.82;5.38;;;;;;;21.80;93.69;101001.66;5027520;28;20210;-75
2023/07/10 00:10:55;;;;;;;6.68;5.22;;;;;;;21.81;93.57;100992.53;5022705;28;20213;-75
2023/07/10 00:13:22;;;;;;;6.72;5.43;;;;;;;21.80;93.31;100990.81;5025380;28;20603;-74
2023/07/10 00:15:49;;;;;;;7.65;5.70;;;;;;;21.75;93.08;100987.72;5024816;28;20209;-76
2023/07/10 00:18:18;;;;;;;7.90;5.80;;;;;;;21.70;93.10;100990.06;5028187;28;20233;-75
2023/07/10 00:20:46;;;;;;;11.60;5.65;;;;;;;21.62;92.87;100979.19;5026064;28;20237;-75
2023/07/10 00:23:13;;;;;;;15.70;6.30;;;;;;;21.52;92.93;100984.72;5025088;28;20655;-76
2023/07/10 00:25:40;;;;;;;17.52;5.78;;;;;;;21.44;92.60;100980.09;5026646;28;20293;-75
2023/07/10 00:28:14;;;;;;;9.32;5.97;;;;;;;21.38;93.04;100980.72;5019621;28;20297;-76
2023/07/10 00:30:41;;;;;;;9.57;5.70;;;;;;;21.36;93.86;100979.19;5016799;28;20220;-75
2023/07/10 00:33:10;;;;;;;8.00;5.57;;;;;;;21.37;94.80;100976.31;5027392;28;20259;-76
2023/07/10 00:35:37;;;;;;;8.77;5.25;;;;;;;21.39;95.16;100984.28;5020699;28;20217;-75
2023/07/10 00:38:16;;;;;;;6.53;5.45;;;;;;;21.42;95.60;100984.84;5024604;28;20230;-76
2023/07/10 00:40:45;;;;;;;11.10;6.45;;;;;;;21.43;95.86;100986.53;5024531;28;20217;-75
2023/07/10 00:43:28;;;;;;;6.78;5.65;;;;;;;21.46;96.20;100983.50;5024020;28;20228;-75
2023/07/10 00:45:59;;;;;;;10.20;5.35;;;;;;;21.50;96.13;100988.63;5016960;28;20672;-75
2023/07/10 00:48:32;;;;;;;7.03;4.93;;;;;;;21.48;95.79;100976.06;5018242;28;20235;-76
2023/07/10 00:51:03;;;;;;;9.18;6.10;;;;;;;21.49;95.60;100968.78;5023228;28;20289;-73
2023/07/10 00:53:36;;;;;;;7.77;5.60;;;;;;;21.47;95.58;100952.69;5025098;28;20234;-75
2023/07/10 00:56:05;;;;;;;6.93;6.13;;;;;;;21.44;95.00;100939.47;5024938;28;20204;-76
2023/07/10 00:58:37;;;;;;;6.80;5.43;;;;;;;21.36;94.73;100931.28;5023552;28;20347;-74
2023/07/10 01:01:07;;;;;;;10.63;5.37;;;;;;;21.28;94.38;100952.91;5022376;28;20213;-75
2023/07/10 01:03:34;;;;;;;11.77;6.03;;;;;;;21.21;95.01;100956.41;5023944;28;20240;-74
2023/07/10 01:06:05;;;;;;;8.45;5.85;;;;;;;21.18;95.58;100962.94;5017048;28;20292;-76
2023/07/10 01:08:34;;;;;;;8.33;6.30;;;;;;;21.17;96.61;100961.25;5022880;28;20213;-75
2023/07/10 01:11:00;;;;;;;6.80;6.10;;;;;;;21.16;97.25;100959.53;5025917;28;20217;-75
2023/07/10 01:13:27;;;;;;;8.77;5.88;;;;;;;21.13;97.42;100968.84;5027370;28;20235;-75
2023/07/10 01:15:54;;;;;;;10.90;6.27;;;;;;;21.09;97.30;100975.59;5025586;28;20209;-75
2023/07/10 01:18:24;;;;;;;11.43;6.37;;;;;;;21.07;97.71;100974.88;5025488;28;20239;-76
2023/07/10 01:20:52;;;;;;;9.93;6.47;;;;;;;21.02;97.54;100960.09;5022266;28;20667;-75
2023/07/10 01:23:21;;;;;;;11.17;6.33;;;;;;;20.99;97.63;100957.72;5019789;28;20225;-76
2023/07/10 01:25:53;;;;;;;13.30;6.43;;;;;;;20.95;98.42;100957.19;5015213;28;20221;-75
2023/07/10 01:28:21;;;;;;;9.45;6.43;;;;;;;20.93;98.88;100945.66;5017280;28;20210;-75
2023/07/10 01:30:51;;;;;;;10.00;6.30;;;;;;;20.93;98.89;100966.47;5017782;28;20219;-76
2023/07/10 01:33:20;;;;;;;7.47;6.00;;;;;;;20.90;98.83;100983.88;5025692;28;20245;-75
2023/07/10 01:35:51;;;;;;;9.33;6.13;;;;;;;20.89;99.83;100984.88;5018919;28;20215;-75
2023/07/10 01:38:18;;;;;;;7.83;6.10;;;;;;;20.91;100.00;100995.56;5022364;28;20238;-75
2023/07/10 01:40:52;;;;;;;8.80;6.60;;;;;;;20.93;100.00;101017.94;5027285;28;20209;-76
2023/07/10 01:43:18;;;;;;;9.90;7.13;;;;;;;20.94;100.00;101020.47;5018149;28;20234;-75
2023/07/10 01:45:47;;;;;;;8.03;6.07;;;;;;;20.96;100.00;101020.31;5018858;28;20225;-76
2023/07/10 01:48:17;;;;;;;9.97;6.30;;;;;;;20.97;100.00;101016.59;5026805;28;20223;-76
2023/07/10 01:50:44;;;;;;;6.90;6.20;;;;;;;20.99;100.00;101011.88;5018552;28;20215;-76
2023/07/10 01:53:11;;;;;;;9.27;6.57;;;;;;;20.99;100.00;101014.56;5019987;28;20236;-75
2023/07/10 01:55:43;;;;;;;7.45;6.53;;;;;;;21.00;100.00;101021.69;5026631;28;20343;-76
2023/07/10 01:58:12;;;;;;;7.00;6.03;;;;;;;20.99;100.00;101018.13;5024472;28;20221;-74
2023/07/10 02:00:39;;;;;;;8.70;6.23;;;;;;;20.98;100.00;101005.59;5015612;28;20206;-75
2023/07/10 02:03:05;;;;;;;11.40;6.90;;;;;;;20.99;100.00;100999.19;5021304;28;20661;-75
2023/07/10 02:05:32;;;;;;;11.88;6.13;;;;;;;20.94;100.00;100984.44;5038732;22;20236;-83
2023/07/10 02:07:58;;;;;;;15.45;6.65;;;;;;;20.84;100.00;100972.81;5031007;28;20233;-84
2023/07/10 02:10:25;;;;;;;20.03;6.90;;;;;;;20.77;100.00;100973.47;5031557;28;20204;-83
2023/07/10 02:12:51;;;;;;;15.53;7.03;;;;;;;20.74;100.00;100953.97;5031423;28;20212;-84
2023/07/10 02:15:19;;;;;;;13.48;6.50;;;;;;;20.73;100.00;100953.13;5031117;28;20216;-84
2023/07/10 02:17:46;;;;;;;13.30;6.63;;;;;;;20.74;100.00;100964.78;5030955;28;20734;-84
2023/07/10 02:20:12;;;;;;;12.27;5.97;;;;;;;20.76;100.00;100971.75;5031126;28;20217;-83
2023/07/10 02:22:39;;;;;;;7.60;6.27;;;;;;;20.78;100.00;100979.72;5030693;28;20593;-85
2023/07/10 02:25:06;;;;;;;10.83;6.17;;;;;;;20.80;100.00;100974.97;5030743;28;20557;-86
2023/07/10 02:27:32;;;;;;;10.27;6.20;;;;;;;20.82;100.00;100972.13;5011073;28;20233;-84
2023/07/10 02:29:59;;;;;;;10.07;6.55;;;;;;;20.85;100.00;100971.81;5011221;28;20218;-85
2023/07/10 02:32:27;;;;;;;15.43;6.88;;;;;;;20.87;100.00;100972.50;5011029;28;20210;-83
2023/07/10 02:34:53;;;;;;;12.43;7.17;;;;;;;20.88;100.00;100980.47;5011464;28;20268;-84
2023/07/10 02:37:20;;;;;;;13.40;6.53;;;;;;;20.89;100.00;100967.78;5014438;28;20301;-83
2023/07/10 02:39:47;;;;;;;11.43;6.47;;;;;;;20.88;100.00;100966.94;5014802;28;20223;-83
2023/07/10 02:42:13;;;;;;;12.68;6.68;;;;;;;20.85;100.00;100985.34;5014818;28;20242;-83
2023/07/10 02:44:39;;;;;;;16.13;6.63;;;;;;;20.80;100.00;100999.34;5014235;28;20581;-84
2023/07/10 02:47:06;;;;;;;18.90;7.33;;;;;;;20.78;100.00;101001.38;5014159;28;20719;-83
2023/07/10 02:49:34;;;;;;;17.83;6.73;;;;;;;20.77;100.00;101000.53;5016813;28;20253;-84
2023/07/10 02:52:01;;;;;;;21.90;6.60;;;;;;;20.78;100.00;101001.38;5033424;28;20216;-83
2023/07/10 02:54:27;;;;;;;12.63;6.93;;;;;;;20.76;100.00;100998.81;5033502;28;20217;-83
2023/07/10 02:56:54;;;;;;;12.73;6.17;;;;;;;20.76;100.00;100988.00;5034028;28;20763;-83
2023/07/10 02:59:20;;;;;;;22.60;7.13;;;;;;;20.76;100.00;100993.41;5034296;28;20683;-84
2023/07/10 03:01:47;;;;;;;13.17;6.97;;;;;;;20.77;100.00;100992.41;5034229;28;20219;-83
2023/07/10 03:04:14;;;;;;;12.20;5.57;;;;;;;20.75;100.00;101009.81;5034351;28;20260;-82
2023/07/10 03:06:41;;;;;;;15.43;6.17;;;;;;;20.72;100.00;101019.06;5034371;28;20216;-83
2023/07/10 03:09:08;;;;;;;17.20;6.73;;;;;;;20.70;100.00;101025.66;5035145;28;20232;-84
2023/07/10 03:11:34;;;;;;;37.03;8.00;;;;;;;20.64;100.00;101020.84;5034384;28;20571;-83
2023/07/10 03:14:02;;;;;;;17.17;6.47;;;;;;;20.54;100.00;101014.66;5033548;28;20573;-84
2023/07/10 03:16:29;;;;;;;28.17;6.93;;;;;;;20.48;100.00;101021.50;5033659;28;20202;-84
2023/07/10 03:18:56;;;;;;;30.30;7.10;;;;;;;20.45;100.00;101005.56;5032928;28;20237;-82
2023/07/10 03:21:22;;;;;;;26.47;6.90;;;;;;;20.44;100.00;100998.47;5033298;28;20223;-83
2023/07/10 03:23:51;;;;;;;14.10;6.60;;;;;;;20.43;100.00;100989.50;5033533;28;20199;-84
2023/07/10 03:26:18;;;;;;;11.40;5.20;;;;;;;20.46;100.00;100991.03;5033413;28;20550;-84
2023/07/10 03:28:44;;;;;;;11.27;5.40;;;;;;;20.47;100.00;100991.91;5034169;28;20227;-83
2023/07/10 03:31:11;;;;;;;10.93;5.47;;;;;;;20.49;100.00;100992.59;5029012;28;20208;-84
2023/07/10 03:33:38;;;;;;;8.03;4.47;;;;;;;20.50;100.00;100981.63;5014232;28;20210;-84
2023/07/10 03:36:06;;;;;;;8.23;4.57;;;;;;;20.51;100.00;100982.47;5013914;28;20220;-84
2023/07/10 03:38:34;;;;;;;9.13;4.93;;;;;;;20.55;100.00;100978.47;5014007;28;20232;-83
2023/07/10 03:41:01;;;;;;;10.37;4.70;;;;;;;20.58;100.00;100983.59;5027846;28;20209;-83
2023/07/10 03:43:28;;;;;;;7.13;5.17;;;;;;;20.57;100.00;100980.03;5033100;28;20222;-84
2023/07/10 03:45:55;;;;;;;12.37;4.93;;;;;;;20.59;100.00;100980.72;5034021;28;20204;-83
2023/07/10 03:48:22;;;;;;;8.40;4.90;;;;;;;20.60;100.00;100982.38;5033404;28;20235;-84
2023/07/10 03:50:48;;;;;;;9.13;5.17;;;;;;;20.61;100.00;100986.81;5034068;28;20205;-84
2023/07/10 03:53:15;;;;;;;10.60;5.43;;;;;;;20.61;100.00;100978.69;5033205;28;20208;-82
2023/07/10 03:55:49;;;;;;;9.50;4.77;;;;;;;20.61;100.00;100970.56;5033863;28;20386;-84
2023/07/10 03:58:21;;;;;;;13.30;6.33;;;;;;;20.58;100.00;100972.75;5033498;28;20232;-83
2023/07/10 04:00:48;;;;;;;14.37;5.63;;;;;;;20.56;100.00;100970.19;5033565;28;20215;-83
2023/07/10 04:03:14;;;;;;;10.13;5.57;;;;;;;20.54;100.00;100969.50;5033297;28;20227;-83
2023/07/10 04:05:42;;;;;;;16.03;6.37;;;;;;;20.54;100.00;100963.22;5033529;28;20214;-84
2023/07/10 04:08:08;;;;;;;11.50;5.37;;;;;;;20.53;100.00;100966.94;5025403;28;20229;-84
2023/07/10 04:10:36;;;;;;;11.93;5.43;;;;;;;20.53;100.00;100959.69;5013391;28;20208;-85
2023/07/10 04:13:02;;;;;;;12.57;5.57;;;;;;;20.54;100.00;100960.53;5013241;28;20734;-84
2023/07/10 04:15:30;;;;;;;9.10;5.80;;;;;;;20.55;100.00;100967.66;5013328;28;20215;-84
2023/07/10 04:17:56;;;;;;;10.03;4.87;;;;;;;20.54;100.00;100969.50;5013477;28;20245;-84
2023/07/10 04:20:23;;;;;;;6.70;5.10;;;;;;;20.55;100.00;100973.06;5013247;28;20234;-84
2023/07/10 04:22:49;;;;;;;9.00;4.87;;;;;;;20.56;100.00;100972.91;5013360;28;20205;-84
2023/07/10 04:25:16;;;;;;;7.80;5.20;;;;;;;20.56;100.00;100975.63;5015258;28;20229;-83
2023/07/10 04:27:42;;;;;;;14.13;5.47;;;;;;;20.58;100.00;100986.28;5032674;28;20215;-84
2023/07/10 04:30:09;;;;;;;8.13;5.57;;;;;;;20.58;100.00;100984.44;5032914;28;20295;-84
2023/07/10 04:32:37;;;;;;;9.20;5.40;;;;;;;20.58;100.00;100986.28;5032964;28;20812;-85
2023/07/10 04:35:04;;;;;;;8.63;5.10;;;;;;;20.58;100.00;100987.13;5033041;28;20250;-84
2023/07/10 04:37:31;;;;;;;8.33;4.80;;;;;;;20.60;100.00;100982.38;5033190;28;20213;-84
2023/07/10 04:39:57;;;;;;;8.10;5.07;;;;;;;20.60;100.00;100987.81;5033079;28;20599;-84
2023/07/10 04:42:24;;;;;;;8.90;5.40;;;;;;;20.62;100.00;100993.91;5033029;28;20216;-83
2023/07/10 04:44:52;;;;;;;9.47;5.57;;;;;;;20.64;100.00;100997.31;5033310;28;20208;-83
2023/07/10 04:47:18;;;;;;;8.90;5.33;;;;;;;20.66;100.00;100991.75;5032377;28;20215;-83
2023/07/10 04:49:46;;;;;;;11.20;6.35;;;;;;;20.69;100.00;100992.31;5032699;28;20212;-83
2023/07/10 04:52:13;;;;;;;8.33;5.80;;;;;;;20.69;100.00;101005.00;5032286;28;20212;-84
2023/07/10 04:54:39;;;;;;;10.30;6.37;;;;;;;20.70;100.00;101002.13;5032460;28;20204;-84
2023/07/10 04:57:07;;;;;;;11.97;7.23;;;;;;;20.73;100.00;101018.06;5033238;28;20554;-85
2023/07/10 04:59:33;;;;;;;8.97;7.70;;;;;;;20.76;100.00;101009.66;5031693;28;20234;-86
2023/07/10 05:01:59;;;;;;;10.60;8.23;;;;;;;20.79;100.00;101014.72;5031833;28;20208;-83
2023/07/10 05:04:26;;;;;;;11.40;7.43;;;;;;;20.84;100.00;100999.88;5032138;28;20216;-85
2023/07/10 05:06:58;;;;;;;11.45;7.93;;;;;;;20.86;100.00;101003.28;5032407;28;20205;-85
2023/07/10 05:09:24;;;;;;;12.23;7.97;;;;;;;20.86;100.00;101008.72;5032202;28;20267;-83
2023/07/10 05:11:51;;;;;;;9.63;7.57;;;;;;;20.87;100.00;101011.25;5032088;28;20204;-84
2023/07/10 05:14:17;;;;;;;10.97;7.30;;;;;;;20.90;100.00;101015.53;5032164;28;20673;-80
2023/07/10 05:16:43;;;;;;;9.20;7.87;;;;;;;20.92;100.00;101008.09;5032863;28;20579;-80
2023/07/10 05:19:10;;;;;;;16.77;9.40;;;;;;;20.93;100.00;101007.94;5032960;28;20232;-80
2023/07/10 05:21:36;;;;;;;9.25;8.25;;;;;;;20.95;100.00;101015.91;5032721;28;20227;-80
2023/07/10 05:24:05;;;;;;;14.87;8.27;;;;;;;20.97;100.00;101014.72;5033400;28;20227;-79
2023/07/10 05:26:31;;;;;;;9.93;8.67;;;;;;;21.00;100.00;101014.41;5033107;28;20216;-80
2023/07/10 05:28:58;;;;;;;13.07;9.53;;;;;;;21.03;100.00;101013.25;5032903;28;20233;-80
2023/07/10 05:31:24;;;;;;;14.32;9.57;;;;;;;21.05;100.00;101020.22;5032711;28;20209;-79
2023/07/10 05:33:51;;;;;;;13.80;9.98;;;;;;;21.08;100.00;101014.50;5032573;28;20206;-79
2023/07/10 05:36:19;;;;;;;13.73;10.00;;;;;;;21.09;100.00;101010.78;5031760;28;20198;-84
2023/07/10 05:38:48;;;;;;;11.77;9.10;;;;;;;21.11;100.00;101008.78;5031566;28;20226;-83
2023/07/10 05:41:16;;;;;;;13.97;10.47;;;;;;;21.13;100.00;101017.59;5031514;28;20233;-83
2023/07/10 05:43:42;;;;;;;13.68;10.43;;;;;;;21.17;100.00;101018.13;5030436;28;20208;-84
2023/07/10 05:46:09;;;;;;;13.85;10.93;;;;;;;21.19;100.00;101021.53;5030537;28;20201;-83
2023/07/10 05:48:35;;;;;;;14.25;11.20;;;;;;;21.21;100.00;101027.69;5030732;28;20237;-83
2023/07/10 05:51:02;;;;;;;12.63;11.33;;;;;;;21.24;100.00;101038.19;5030628;28;20209;-83
2023/07/10 05:53:29;;;;;;;13.82;11.40;;;;;;;21.25;100.00;101039.06;5012823;28;20215;-83
2023/07/10 05:55:57;;;;;;;14.45;13.05;;;;;;;21.27;100.00;101059.56;5024175;28;20687;-83
2023/07/10 05:58:30;;;;;;;15.70;12.32;;;;;;;21.28;100.00;101061.28;5030653;28;20225;-82
2023/07/10 06:00:58;;;;;;;18.33;13.30;;;;;;;21.29;100.00;101054.84;5030786;28;20213;-81
2023/07/10 06:03:25;;;;;;;18.50;14.13;;;;;;;21.31;100.00;101058.25;5030236;28;20206;-81
2023/07/10 06:05:55;;;;;;;18.13;14.05;;;;;;;21.33;100.00;101064.34;5030222;28;20205;-81
2023/07/10 06:08:22;;;;;;;16.30;13.30;;;;;;;21.36;100.00;101060.47;5031543;28;20226;-78
2023/07/10 06:10:48;;;;;;;15.98;14.32;;;;;;;21.37;100.00;101060.31;5035367;28;20227;-78
2023/07/10 06:13:15;;;;;;;16.40;13.88;;;;;;;21.40;100.00;101067.28;5035968;28;20225;-79
2023/07/10 06:15:43;;;;;;;18.60;14.32;;;;;;;21.40;100.00;101065.44;5037170;28;20206;-79
2023/07/10 06:18:10;;;;;;;18.77;15.27;;;;;;;21.42;100.00;101067.97;5036623;28;20589;-78
2023/07/10 06:20:36;;;;;;;15.95;14.25;;;;;;;21.44;100.00;101072.25;5035908;28;20248;-83
2023/07/10 06:23:03;;;;;;;15.70;14.00;;;;;;;21.44;100.00;101068.69;5034811;28;20225;-81
2023/07/10 06:25:31;;;;;;;17.65;13.48;;;;;;;21.43;100.00;101081.38;5034328;28;20209;-81
2023/07/10 06:27:58;;;;;;;16.58;13.70;;;;;;;21.42;100.00;101086.94;5034674;28;20619;-79
2023/07/10 06:30:24;;;;;;;15.55;13.02;;;;;;;21.42;100.00;101085.09;5033782;28;20212;-83
2023/07/10 06:32:52;;;;;;;15.77;13.25;;;;;;;21.40;100.00;101088.97;5014448;28;20226;-83
2023/07/10 06:35:19;;;;;;;15.30;13.80;;;;;;;21.36;100.00;101088.41;5030238;28;20206;-83
2023/07/10 06:37:45;;;;;;;15.23;12.75;;;;;;;21.32;100.00;101092.44;5014304;28;20300;-82
2023/07/10 06:40:14;;;;;;;15.30;13.00;;;;;;;21.30;100.00;101097.19;5013939;28;20233;-82
2023/07/10 06:42:41;;;;;;;19.10;14.18;;;;;;;21.27;100.00;101100.19;5027655;28;20206;-83
2023/07/10 06:45:10;;;;;;;15.27;13.75;;;;;;;21.26;100.00;101103.06;5034175;28;20721;-82
2023/07/10 06:47:40;;;;;;;18.30;14.20;;;;;;;21.24;100.00;101105.06;5033545;28;20249;-81
2023/07/10 06:50:10;;;;;;;19.48;14.57;;;;;;;21.23;100.00;101114.22;5033094;28;20213;-80
2023/07/10 06:52:39;;;;;;;22.45;14.15;;;;;;;21.18;100.00;101117.34;5033147;28;20212;-83
2023/07/10 06:55:06;;;;;;;14.43;12.85;;;;;;;21.14;100.00;101119.50;5033699;28;20209;-81
2023/07/10 06:57:33;;;;;;;16.17;12.87;;;;;;;21.09;100.00;101119.13;5033299;28;20229;-82
2023/07/10 07:00:00;;;;;;;15.52;13.27;;;;;;;21.03;100.00;101124.28;5033527;28;20226;-84
2023/07/10 07:02:28;;;;;;;14.13;11.80;;;;;;;20.96;100.00;101131.34;5033046;28;20213;-82
2023/07/10 07:04:54;;;;;;;13.15;11.43;;;;;;;20.90;100.00;101123.81;5033051;28;20603;-82
2023/07/10 07:07:22;;;;;;;13.25;11.07;;;;;;;20.86;100.00;101128.69;5034161;28;20205;-83
2023/07/10 07:09:49;;;;;;;15.10;12.00;;;;;;;20.82;100.00;101126.41;5025820;28;20201;-83
2023/07/10 07:12:15;;;;;;;13.40;10.52;;;;;;;20.79;100.00;101122.16;5033299;28;20213;-83
2023/07/10 07:14:42;;;;;;;15.67;11.77;;;;;;;20.77;100.00;101118.78;5033347;28;20216;-82
2023/07/10 07:17:11;;;;;;;14.05;11.27;;;;;;;20.74;100.00;101124.50;5032226;28;20206;-83
2023/07/10 07:19:37;;;;;;;15.03;11.33;;;;;;;20.74;100.00;101124.50;5030156;28;20743;-83
2023/07/10 07:22:04;;;;;;;15.77;12.83;;;;;;;20.75;100.00;101113.50;5028770;28;20225;-83
2023/07/10 07:24:32;;;;;;;17.42;13.45;;;;;;;20.79;100.00;101122.16;5032524;28;20610;-83
2023/07/10 07:26:59;;;;;;;14.93;13.38;;;;;;;20.83;100.00;101117.31;5027814;28;20238;-81
2023/07/10 07:29:26;;;;;;;16.40;12.55;;;;;;;20.87;100.00;101122.25;5032747;28;20287;-83
2023/07/10 07:31:53;;;;;;;12.75;11.38;;;;;;;20.91;100.00;101117.41;5032752;28;20217;-80
2023/07/10 07:34:19;;;;;;;13.20;11.70;;;;;;;20.94;100.00;101122.53;5032246;28;20210;-81
2023/07/10 07:36:46;;;;;;;11.43;8.90;;;;;;;20.95;100.00;101116.97;5031580;28;20206;-82
2023/07/10 07:39:12;;;;;;;9.70;8.38;;;;;;;20.98;100.00;101121.19;5032416;28;20222;-82
2023/07/10 07:41:40;;;;;;;9.10;8.20;;;;;;;20.99;100.00;101123.75;5033389;28;20716;-82
2023/07/10 07:44:06;;;;;;;8.25;7.32;;;;;;;20.99;100.00;101133.72;5033291;28;20216;-82
2023/07/10 07:46:33;;;;;;;8.67;7.33;;;;;;;21.01;100.00;101131.72;5033033;28;20217;-82
2023/07/10 07:49:00;;;;;;;8.98;7.65;;;;;;;21.00;100.00;101139.00;5029565;28;20708;-83
2023/07/10 07:51:26;;;;;;;7.90;7.10;;;;;;;21.02;100.00;101142.41;5025663;28;20211;-84
2023/07/10 07:54:03;;;;;;;7.70;7.00;;;;;;;21.02;100.00;101141.53;5033551;28;20248;-83
2023/07/10 07:56:30;;;;;;;8.90;6.97;;;;;;;21.02;100.00;101133.41;5033589;28;20193;-83
2023/07/10 07:58:58;;;;;;;7.55;6.85;;;;;;;21.03;100.00;101141.41;5033507;28;20236;-84
2023/07/10 08:01:24;;;;;;;7.67;6.87;;;;;;;21.05;100.00;101141.25;5033776;28;20603;-85
2023/07/10 08:03:51;;;;;;;6.75;6.15;;;;;;;21.05;99.86;101152.06;5033081;28;20221;-86
2023/07/10 08:06:17;;;;;;;8.30;7.47;;;;;;;21.07;100.00;101147.38;5033032;28;20573;-85
2023/07/10 08:08:45;;;;;;;6.93;5.93;;;;;;;21.11;100.00;101156.91;5034464;28;20233;-85
2023/07/10 08:11:12;;;;;;;7.82;6.97;;;;;;;21.13;100.00;101163.88;5027321;28;20237;-87
2023/07/10 08:13:39;;;;;;;7.55;6.85;;;;;;;21.15;100.00;101160.97;5013918;28;20222;-85
2023/07/10 08:16:07;;;;;;;7.40;6.50;;;;;;;21.19;100.00;101166.94;5014397;28;20198;-84
2023/07/10 08:18:33;;;;;;;8.48;7.25;;;;;;;21.19;100.00;101169.66;5033232;28;20232;-84
2023/07/10 08:21:03;;;;;;;10.68;8.48;;;;;;;21.19;99.99;101178.63;5032824;28;20233;-85
2023/07/10 08:23:29;;;;;;;10.27;9.27;;;;;;;21.17;99.59;101180.63;5032842;28;20209;-85
2023/07/10 08:25:56;;;;;;;10.60;9.50;;;;;;;21.14;99.83;101178.22;5033156;28;20840;-84
2023/07/10 08:28:24;;;;;;;10.55;9.45;;;;;;;21.11;99.65;101176.72;5033950;28;20570;-85
2023/07/10 08:30:51;;;;;;;13.43;10.00;;;;;;;21.08;99.62;101174.31;5034252;28;20232;-84
2023/07/10 08:33:21;;;;;;;13.30;10.43;;;;;;;21.06;99.57;101179.00;5034419;28;20206;-85
2023/07/10 08:35:54;;;;;;;10.60;9.60;;;;;;;21.06;100.00;101173.59;5033938;28;20202;-86
2023/07/10 08:38:20;;;;;;;10.85;9.80;;;;;;;21.09;100.00;101173.28;5034193;28;20230;-84
2023/07/10 08:40:50;;;;;;;10.73;9.73;;;;;;;21.15;100.00;101179.94;5013392;28;20230;-85
2023/07/10 08:43:26;;;;;;;9.38;8.38;;;;;;;21.18;100.00;101179.63;5013399;28;20648;-85
2023/07/10 08:45:57;;;;;;;9.82;8.82;;;;;;;21.23;100.00;101184.63;5012601;28;20216;-84
2023/07/10 08:48:32;;;;;;;10.38;8.77;;;;;;;21.26;99.75;101178.91;5012914;28;20227;-85
2023/07/10 08:51:10;;;;;;;9.32;8.25;;;;;;;21.31;99.58;101185.59;5012987;28;20590;-84
2023/07/10 08:53:39;;;;;;;8.02;7.32;;;;;;;21.32;98.30;101175.56;5012481;28;20537;-84
2023/07/10 08:56:15;;;;;;;8.10;7.32;;;;;;;21.33;97.71;101182.69;5013132;28;20263;-86
2023/07/10 08:58:42;;;;;;;8.00;7.20;;;;;;;21.31;96.49;101182.03;5012094;28;20222;-84
2023/07/10 09:01:16;;;;;;;8.43;7.38;;;;;;;21.32;96.01;101195.41;5012724;28;20231;-85
2023/07/10 09:03:48;;;;;;;10.25;8.70;;;;;;;21.35;95.81;101189.66;5031675;28;20665;-85
2023/07/10 09:06:19;;;;;;;8.35;7.53;;;;;;;21.43;95.89;101180.78;5031639;28;20198;-85
2023/07/10 09:08:50;;;;;;;7.95;7.25;;;;;;;21.57;95.92;101187.50;5031645;28;20234;-84
2023/07/10 09:11:17;;;;;;;9.55;8.55;;;;;;;21.69;95.61;101187.13;5031741;28;20190;-84
2023/07/10 09:13:48;;;;;;;8.55;7.72;;;;;;;21.77;94.06;101183.63;5031575;28;20194;-85
2023/07/10 09:16:17;;;;;;;8.02;7.30;;;;;;;21.86;93.29;101192.66;5031645;28;20605;-86
2023/07/10 09:18:50;;;;;;;8.00;7.20;;;;;;;21.94;92.67;101185.47;5031569;28;20233;-86
2023/07/10 09:21:21;;;;;;;7.75;7.03;;;;;;;22.02;91.31;101187.44;5031463;28;20674;-83
2023/07/10 09:23:49;;;;;;;8.43;7.63;;;;;;;22.06;90.14;101186.94;5031296;28;20221;-84
2023/07/10 09:26:18;;;;;;;8.50;7.63;;;;;;;22.09;88.99;101193.91;5031347;28;20670;-85
2023/07/10 09:29:11;;;;;;;7.70;6.63;;;;;;;22.12;88.55;101201.75;5031879;28;20245;-83
2023/07/10 09:31:45;;;;;;;8.50;6.75;;;;;;;22.22;89.10;101197.06;5031660;28;20205;-85
2023/07/10 09:34:13;;;;;;;9.55;7.80;;;;;;;22.30;88.68;101198.97;5032620;28;20210;-85
2023/07/10 09:36:39;;;;;;;8.32;7.47;;;;;;;22.37;88.24;101206.34;5032589;28;20202;-85
2023/07/10 09:39:06;;;;;;;9.13;8.32;;;;;;;22.39;87.58;101203.47;5032078;28;20863;-86
2023/07/10 09:41:33;;;;;;;9.13;8.23;;;;;;;22.39;86.33;101211.59;5031516;28;20225;-84
2023/07/10 09:44:02;;;;;;;9.95;8.43;;;;;;;22.36;85.71;101209.22;5031404;28;20205;-84
2023/07/10 09:46:32;;;;;;;9.77;8.32;;;;;;;22.31;85.15;101204.25;5035009;28;20215;-85
2023/07/10 09:49:01;;;;;;;11.27;8.88;;;;;;;22.29;84.98;101213.56;5036639;28;20254;-84
2023/07/10 09:51:30;;;;;;;10.65;8.95;;;;;;;22.27;84.81;101207.44;5036433;28;20221;-84
2023/07/10 09:54:04;;;;;;;11.23;8.27;;;;;;;22.27;85.21;101207.44;5036296;28;20563;-85
2023/07/10 09:56:35;;;;;;;9.15;8.07;;;;;;;22.28;85.25;101212.69;5022924;28;20250;-84
2023/07/10 09:59:03;;;;;;;10.57;8.38;;;;;;;22.30;85.96;101213.41;5016133;28;20230;-85
2023/07/10 10:01:31;;;;;;;8.90;8.00;;;;;;;22.38;86.39;101218.03;5015567;28;20297;-85
2023/07/10 10:04:02;;;;;;;10.48;7.90;;;;;;;22.44;86.29;101220.09;5015785;28;20221;-84
2023/07/10 10:06:32;;;;;;;10.70;8.27;;;;;;;22.49;85.79;101221.31;5028252;28;20190;-84
2023/07/10 10:09:03;;;;;;;9.48;7.95;;;;;;;22.54;85.28;101217.28;5033775;28;20221;-84
2023/07/10 10:11:35;;;;;;;8.82;7.78;;;;;;;22.61;84.90;101230.03;5034586;28;20229;-83
2023/07/10 10:14:06;;;;;;;9.50;7.80;;;;;;;22.66;84.20;101222.28;5036277;28;20770;-84
2023/07/10 10:16:39;;;;;;;9.68;8.40;;;;;;;22.67;83.18;101223.97;5034308;28;20202;-84
2023/07/10 10:19:13;;;;;;;8.55;7.65;;;;;;;22.68;82.59;101238.41;5035156;28;20218;-84
2023/07/10 10:21:42;;;;;;;9.30;8.38;;;;;;;22.69;82.67;101234.69;5034239;28;20221;-85
2023/07/10 10:24:12;;;;;;;8.40;7.43;;;;;;;22.70;82.81;101248.09;5034672;28;20238;-85
2023/07/10 10:26:57;;;;;;;9.32;7.28;;;;;;;22.73;82.61;101236.91;5034987;28;20641;-87
2023/07/10 10:29:50;;;;;;;9.38;7.95;;;;;;;22.78;82.31;101233.72;5035024;28;20261;-88
2023/07/10 10:32:30;;;;;;;10.65;7.18;;;;;;;22.89;82.22;101241.59;5035397;28;20186;-84
2023/07/10 10:35:03;;;;;;;10.18;6.57;;;;;;;23.04;82.35;101234.53;5027694;28;20202;-84
2023/07/10 10:37:43;;;;;;;8.10;6.20;;;;;;;23.21;81.04;101243.59;5035218;28;20241;-84
2023/07/10 10:40:21;;;;;;;6.05;5.50;;;;;;;23.38;80.06;101245.34;5034886;28;20197;-85
2023/07/10 10:42:53;;;;;;;6.40;5.10;;;;;;;23.46;76.94;101242.66;5033937;28;20214;-84
2023/07/10 10:45:39;;;;;;;5.88;4.43;;;;;;;23.52;74.85;101238.44;5034117;28;20571;-84
2023/07/10 10:48:16;;;;;;;6.95;4.97;;;;;;;23.64;74.79;101237.13;5033937;28;20764;-84
2023/07/10 10:50:59;;;;;;;5.22;4.50;;;;;;;23.82;73.71;101228.81;5033613;28;20190;-84
2023/07/10 10:53:40;;;;;;;5.70;4.28;;;;;;;23.97;73.07;101224.38;5033720;28;20190;-85
2023/07/10 10:56:17;;;;;;;4.88;3.60;;;;;;;24.10;71.78;101219.28;5032755;28;20198;-84
2023/07/10 10:58:56;;;;;;;4.07;3.33;;;;;;;24.16;68.74;101226.75;5033763;28;20233;-84
2023/07/10 11:01:33;;;;;;;5.00;3.20;;;;;;;24.26;68.04;101220.31;5033310;28;20260;-85
2023/07/10 11:04:11;;;;;;;6.05;3.25;;;;;;;24.40;67.48;101225.03;5033506;28;20701;-84
2023/07/10 11:06:45;;;;;;;4.40;2.90;;;;;;;24.56;66.74;101227.72;5030828;28;20202;-85
2023/07/10 11:09:16;;;;;;;4.90;3.05;;;;;;;24.72;65.69;101219.50;5021169;28;20572;-85
2023/07/10 11:11:43;;;;;;;5.22;2.70;;;;;;;24.85;63.91;101222.56;5031094;28;20211;-84
2023/07/10 11:14:12;;;;;;;4.13;2.40;;;;;;;25.03;62.86;101218.75;5031021;28;20204;-85
2023/07/10 11:16:39;;;;;;;4.18;2.85;;;;;;;25.18;62.05;101231.47;5030385;28;20645;-86
2023/07/10 11:19:07;;;;;;;3.90;2.78;;;;;;;25.37;61.17;101227.44;5032639;28;20229;-85
2023/07/10 11:21:34;;;;;;;2.35;2.15;;;;;;;25.51;60.50;101229.38;5027549;28;20240;-86